createdAt,value
2022-08-30T00:00:29.158Z,7.07
2022-08-30T00:05:33.156Z,6.85
2022-08-30T00:10:38.592Z,8.25
2022-08-30T00:15:42.242Z,7.13
2022-08-30T00:20:46.838Z,8.35
2022-08-30T00:25:51.266Z,9.10
2022-08-30T00:30:54.713Z,13.52
2022-08-30T00:35:58.141Z,6.97
2022-08-30T00:41:02.638Z,7.30
2022-08-30T00:46:08.413Z,8.30
2022-08-30T00:51:14.072Z,7.78
2022-08-30T01:01:22.563Z,7.40
2022-08-30T01:06:26.157Z,8.18
2022-08-30T01:11:38.214Z,7.28
2022-08-30T01:16:43.825Z,7.55
2022-08-30T01:21:49.837Z,8.55
2022-08-30T01:26:54.918Z,12.50
2022-08-30T01:31:58.034Z,8.93
2022-08-30T01:37:02.209Z,10.05
2022-08-30T01:42:06.922Z,10.45
2022-08-30T01:47:10.675Z,12.07
2022-08-30T01:52:15.280Z,9.63
2022-08-30T01:57:22.933Z,15.40
2022-08-30T02:02:29.258Z,10.35
2022-08-30T02:07:32.485Z,13.18
2022-08-30T02:12:37.640Z,11.82
2022-08-30T02:17:41.693Z,15.82
2022-08-30T02:22:49.224Z,11.52
2022-08-30T02:27:54.011Z,15.27
2022-08-30T02:32:57.402Z,17.57
2022-08-30T02:38:00.492Z,15.20
2022-08-30T02:43:05.272Z,21.17
2022-08-30T02:48:08.362Z,14.10
2022-08-30T02:53:11.888Z,13.95
2022-08-30T02:58:20.598Z,13.25
2022-08-30T03:03:23.707Z,14.27
2022-08-30T03:08:26.963Z,17.17
2022-08-30T03:13:31.725Z,12.32
2022-08-30T03:18:34.984Z,15.88
2022-08-30T03:23:38.104Z,17.55
2022-08-30T03:28:43.632Z,15.23
2022-08-30T03:33:46.998Z,13.40
2022-08-30T03:38:50.084Z,15.23
2022-08-30T03:43:59.928Z,14.30
2022-08-30T03:49:03.577Z,11.57
2022-08-30T03:54:07.131Z,14.52
2022-08-30T03:59:11.690Z,9.98
2022-08-30T04:04:20.058Z,18.53
2022-08-30T04:09:24.848Z,14.23
2022-08-30T04:14:29.618Z,12.73
2022-08-30T04:19:32.745Z,17.17
2022-08-30T04:24:35.959Z,13.77
2022-08-30T04:29:40.984Z,12.63
2022-08-30T04:34:44.108Z,14.57
2022-08-30T04:39:48.816Z,11.55
2022-08-30T04:44:53.242Z,9.87
2022-08-30T04:49:56.567Z,15.45
2022-08-30T04:55:00.189Z,11.70
2022-08-30T05:00:07.609Z,11.40
2022-08-30T05:05:29.450Z,13.55
2022-08-30T05:10:32.646Z,15.25
2022-08-30T05:15:37.937Z,10.93
2022-08-30T05:20:41.961Z,12.93
2022-08-30T05:25:46.108Z,12.30
2022-08-30T05:30:50.494Z,13.32
2022-08-30T05:35:53.676Z,12.40
2022-08-30T05:40:56.797Z,11.70
2022-08-30T05:46:03.174Z,10.35
2022-08-30T05:51:08.775Z,10.65
2022-08-30T05:56:14.402Z,9.80
2022-08-30T06:01:24.941Z,12.77
2022-08-30T06:06:29.476Z,11.25
2022-08-30T06:11:35.927Z,10.07
2022-08-30T06:16:45.883Z,9.48
2022-08-30T06:21:51.281Z,11.57
2022-08-30T06:26:54.706Z,7.68
2022-08-30T06:31:59.294Z,11.77
2022-08-30T06:37:02.689Z,9.55
2022-08-30T06:42:06.625Z,9.80
2022-08-30T06:47:11.539Z,8.73
2022-08-30T06:52:15.297Z,13.85
2022-08-30T06:57:18.887Z,9.60
2022-08-30T07:02:24.185Z,8.25
2022-08-30T07:07:28.111Z,8.45
2022-08-30T07:12:33.172Z,9.05
2022-08-30T07:17:56.428Z,9.32
2022-08-30T07:22:59.841Z,10.30
2022-08-30T07:28:04.519Z,10.35
2022-08-30T07:33:09.692Z,9.18
2022-08-30T07:38:14.466Z,9.50
2022-08-30T07:43:18.187Z,10.57
2022-08-30T07:48:23.089Z,11.80
2022-08-30T07:53:26.560Z,8.52
2022-08-30T07:58:29.955Z,8.13
2022-08-30T08:03:35.245Z,10.57
2022-08-30T08:08:39.929Z,7.28
2022-08-30T08:13:53.143Z,5.57
2022-08-30T08:18:59.282Z,4.68
2022-08-30T08:24:03.550Z,4.40
2022-08-30T08:29:08.766Z,6.60
2022-08-30T08:34:14.222Z,4.88
2022-08-30T08:39:17.954Z,3.38
2022-08-30T08:44:34.406Z,4.63
2022-08-30T08:49:42.365Z,4.38
2022-08-30T08:54:52.340Z,4.78
2022-08-30T08:59:55.884Z,6.97
2022-08-30T09:05:02.631Z,2.35
2022-08-30T09:10:07.234Z,2.25
2022-08-30T09:15:16.920Z,2.37
2022-08-30T09:20:32.308Z,3.25
2022-08-30T09:25:41.223Z,2.17
2022-08-30T09:31:00.591Z,2.10
2022-08-30T09:36:19.959Z,4.00
2022-08-30T09:41:30.168Z,2.25
2022-08-30T09:46:34.328Z,2.05
2022-08-30T09:51:47.189Z,2.95
2022-08-30T09:57:01.439Z,2.67
2022-08-30T10:02:15.922Z,3.70
2022-08-30T10:07:28.998Z,2.38
2022-08-30T10:12:40.406Z,2.28
2022-08-30T10:17:51.534Z,1.17
2022-08-30T10:23:04.203Z,2.22
2022-08-30T10:28:14.687Z,1.75
2022-08-30T10:33:22.804Z,1.23
2022-08-30T10:38:35.386Z,0.68
2022-08-30T10:43:50.980Z,1.88
2022-08-30T10:48:56.493Z,1.30
2022-08-30T10:59:07.696Z,2.45
2022-08-30T11:04:47.096Z,2.83
2022-08-30T11:10:08.889Z,3.53
2022-08-30T11:15:16.764Z,2.10
2022-08-30T11:20:29.672Z,2.70
2022-08-30T11:25:57.711Z,2.90
2022-08-30T11:31:06.834Z,3.22
2022-08-30T11:36:12.447Z,2.25
2022-08-30T11:41:32.333Z,1.85
2022-08-30T11:46:39.764Z,2.63
2022-08-30T11:57:37.929Z,10.60
2022-08-30T12:02:48.865Z,4.07
2022-08-30T12:07:58.552Z,5.47
2022-08-30T12:13:03.815Z,2.42
2022-08-30T12:18:28.696Z,5.30
2022-08-30T12:23:44.518Z,7.80
2022-08-30T12:28:52.519Z,4.45
2022-08-30T12:34:01.848Z,4.82
2022-08-30T12:39:11.872Z,5.15
2022-08-30T12:44:21.032Z,5.35
2022-08-30T12:49:27.207Z,11.05
2022-08-30T12:54:31.124Z,21.30
2022-08-30T12:59:54.186Z,4.05
2022-08-30T13:05:34.306Z,3.88
2022-08-30T13:10:48.354Z,3.72
2022-08-30T13:15:53.764Z,3.53
2022-08-30T13:21:11.541Z,5.00
2022-08-30T13:26:20.499Z,4.55
2022-08-30T13:31:30.461Z,3.42
2022-08-30T13:36:37.580Z,3.85
2022-08-30T13:41:40.932Z,3.83
2022-08-30T13:46:53.918Z,2.40
2022-08-30T13:52:19.338Z,3.22
2022-08-30T14:02:54.484Z,2.28
2022-08-30T14:07:59.091Z,2.97
2022-08-30T14:13:08.807Z,3.83
2022-08-30T14:18:17.792Z,3.42
2022-08-30T14:23:22.259Z,1.55
2022-08-30T14:28:29.862Z,2.92
2022-08-30T14:33:36.024Z,2.67
2022-08-30T14:43:46.182Z,1.65
2022-08-30T14:48:51.092Z,4.45
2022-08-30T14:53:54.869Z,2.75
2022-08-30T14:59:02.620Z,4.22
2022-08-30T15:04:10.387Z,3.00
2022-08-30T15:09:19.161Z,2.92
2022-08-30T15:14:28.080Z,1.95
2022-08-30T15:19:33.325Z,1.83
2022-08-30T15:24:37.467Z,4.55
2022-08-30T15:29:41.122Z,2.83
2022-08-30T15:34:46.026Z,4.05
2022-08-30T15:39:59.368Z,2.03
2022-08-30T15:45:03.724Z,3.83
2022-08-30T15:50:09.612Z,2.97
2022-08-30T15:55:13.046Z,2.38
2022-08-30T16:00:17.224Z,5.85
2022-08-30T16:05:23.773Z,3.10
2022-08-30T16:10:29.592Z,3.15
2022-08-30T16:20:40.025Z,3.07
2022-08-30T16:25:43.851Z,2.42
2022-08-30T16:30:47.385Z,2.88
2022-08-30T16:35:56.541Z,3.58
2022-08-30T16:41:04.614Z,4.88
2022-08-30T16:46:10.938Z,2.30
2022-08-30T16:51:17.553Z,3.03
2022-08-30T16:56:24.435Z,2.83
2022-08-30T17:01:31.848Z,3.55
2022-08-30T17:06:38.128Z,3.17
2022-08-30T17:11:41.693Z,7.30
2022-08-30T17:16:45.295Z,2.55
2022-08-30T17:21:50.944Z,2.05
2022-08-30T17:26:54.716Z,5.32
2022-08-30T17:31:58.498Z,9.05
2022-08-30T17:37:04.371Z,3.83
2022-08-30T17:42:08.334Z,4.30
2022-08-30T17:47:12.058Z,5.35
2022-08-30T17:52:16.854Z,5.78
2022-08-30T18:02:27.885Z,4.45
2022-08-30T18:07:35.648Z,4.20
2022-08-30T18:12:39.498Z,4.80
2022-08-30T18:17:49.022Z,5.65
2022-08-30T18:22:55.692Z,4.45
2022-08-30T18:27:59.380Z,4.25
2022-08-30T18:33:02.954Z,4.82
2022-08-30T18:38:11.331Z,4.32
2022-08-30T18:43:15.805Z,5.43
2022-08-30T18:48:20.315Z,4.13
2022-08-30T18:53:29.138Z,5.32
2022-08-30T18:58:34.926Z,4.03
2022-08-30T19:03:38.566Z,5.07
2022-08-30T19:08:45.867Z,4.78
2022-08-30T19:13:49.320Z,6.43
2022-08-30T19:18:54.717Z,8.38
2022-08-30T19:23:59.592Z,5.47
2022-08-30T19:29:03.149Z,6.25
2022-08-30T19:34:06.905Z,10.73
2022-08-30T19:39:11.792Z,5.88
2022-08-30T19:49:19.342Z,8.80
2022-08-30T20:46:50.812Z,5.72
2022-08-30T20:51:55.340Z,6.47
2022-08-30T20:56:58.668Z,6.38
2022-08-30T21:02:05.450Z,5.55
2022-08-30T21:07:08.992Z,8.60
2022-08-30T21:12:12.319Z,4.72
2022-08-30T21:17:17.969Z,6.50
2022-08-30T21:22:21.557Z,7.40
2022-08-30T21:27:25.059Z,4.18
2022-08-30T21:32:29.895Z,5.28
2022-08-30T21:37:36.133Z,4.40
2022-08-30T21:42:40.147Z,5.90
2022-08-30T22:08:47.648Z,3.55
